In Rescue
 
Open Full Screen Window  High Contrast Mode
November 20, 2019 2:21 AM EST
Present Weather: Mist
Weather Information
Wind Direction
  ---
Wind Speed
  00 kt (0 mph)
Wind Gust
  00 kt (0 mph)
Altimeter
30.04 in
Visibility
4 SM
Temperature
00° C
32° F
Dewpoint
-01° C
30° F
Humidity
93%
Sky Condition
Overcast @ 3,700 ft
MVFR

METAR KHAI 200721Z AUTO 00000KT 4SM BR OVC037 00/M01 A3004 RMK AO2 T00011010

FAA Disclaimer: The data displayed is for advisory purposes only and is not to be used for flight planning or operations.